Time;durP1;ratioP1;P1;durP2;ratioP2;P2;SDS_P1;SDS_P2;PMS_P1;PMS_P2;Temp;Humidity;BMP_temperature;BMP_pressure;BME280_temperature;BME280_humidity;BME280_pressure;Samples;Min_cycle;Max_cycle;Signal;HPM_P1;HPM_P2
2021/08/13 00:00:27;;;;;;;;;;;22.40;89.10;;;;;;4317267;33;43035;-83
2021/08/13 00:02:57;;;;;;;;;;;22.40;89.20;;;;;;4315938;33;44192;-83
2021/08/13 00:05:25;;;;;;;;;;;22.30;89.20;;;;;;4317790;33;45545;-83
2021/08/13 00:07:52;;;;;;;;;;;22.40;89.30;;;;;;4317477;33;43069;-83
2021/08/13 00:10:22;;;;;;;;;;;22.30;89.40;;;;;;4316349;33;44195;-83
2021/08/13 00:12:49;;;;;;;;;;;22.30;89.50;;;;;;4316639;33;43965;-83
2021/08/13 00:15:17;;;;;;;;;;;22.30;89.60;;;;;;4317503;33;44105;-83
2021/08/13 00:17:44;;;;;;;;;;;22.30;89.70;;;;;;4317166;33;43830;-83
2021/08/13 00:20:11;;;;;;;;;;;22.30;89.80;;;;;;4315792;33;44474;-83
2021/08/13 00:22:41;;;;;;;;;;;22.30;90.00;;;;;;4317239;33;43234;-83
2021/08/13 00:25:08;;;;;;;;;;;22.30;90.00;;;;;;4315742;33;43350;-83
2021/08/13 00:27:37;;;;;;;;;;;22.30;90.10;;;;;;4316846;33;44270;-84
2021/08/13 00:30:05;;;;;;;;;;;22.30;90.20;;;;;;4316182;33;44000;-83
2021/08/13 00:32:34;;;;;;;;;;;22.30;90.20;;;;;;4316801;33;43496;-83
2021/08/13 00:35:02;;;;;;;;;;;22.30;90.20;;;;;;4317049;33;43893;-83
2021/08/13 00:37:31;;;;;;;;;;;22.20;90.30;;;;;;4317269;33;45991;-82
2021/08/13 00:39:58;;;;;;;;;;;22.20;90.30;;;;;;4315581;33;44117;-83
2021/08/13 00:42:25;;;;;;;;;;;22.20;90.30;;;;;;4316655;33;42915;-83
2021/08/13 00:44:52;;;;;;;;;;;22.20;90.30;;;;;;4316740;33;43960;-82
2021/08/13 00:47:19;;;;;;;;;;;22.20;90.30;;;;;;4316169;33;43995;-83
2021/08/13 00:49:46;;;;;;;;;;;22.20;90.30;;;;;;4317057;33;44227;-82
2021/08/13 00:52:14;;;;;;;;;;;22.20;90.30;;;;;;4316614;33;43860;-82
2021/08/13 00:54:44;;;;;;;;;;;22.20;90.40;;;;;;4316972;33;42152;-83
2021/08/13 00:57:11;;;;;;;;;;;22.20;90.40;;;;;;4316920;33;43434;-83
2021/08/13 00:59:40;;;;;;;;;;;22.20;90.40;;;;;;4316541;33;43491;-82
2021/08/13 01:02:08;;;;;;;;;;;22.20;90.40;;;;;;4316437;33;42996;-82
2021/08/13 01:04:35;;;;;;;;;;;22.20;90.40;;;;;;4316310;33;43325;-82
2021/08/13 01:07:03;;;;;;;;;;;22.20;90.40;;;;;;4315594;33;43080;-82
2021/08/13 01:09:30;;;;;;;;;;;22.20;90.40;;;;;;4316721;33;44204;-82
2021/08/13 01:12:02;;;;;;;;;;;22.20;90.40;;;;;;4316677;33;44272;-83
2021/08/13 01:14:35;;;;;;;;;;;22.20;90.30;;;;;;4316987;33;43995;-83
2021/08/13 01:17:04;;;;;;;;;;;22.20;90.30;;;;;;4315701;33;45061;-83
2021/08/13 01:19:50;;;;;;;;;;;22.10;90.30;;;;;;4316496;33;44074;-83
2021/08/13 01:22:22;;;;;;;;;;;22.10;90.30;;;;;;4316572;33;44011;-83
2021/08/13 01:24:51;;;;;;;;;;;22.10;90.60;;;;;;4315061;33;43852;-83
2021/08/13 01:27:20;;;;;;;;;;;22.10;90.30;;;;;;4316268;33;44209;-83
2021/08/13 01:29:56;;;;;;;;;;;22.10;90.30;;;;;;4314949;33;42750;-83
2021/08/13 01:32:33;;;;;;;;;;;22.10;90.30;;;;;;4315934;33;44200;-82
2021/08/13 01:35:33;;;;;;;;;;;22.00;90.30;;;;;;4315347;33;43486;-83
2021/08/13 01:38:06;;;;;;;;;;;22.00;90.30;;;;;;4291286;33;43301;-83
2021/08/13 01:40:34;;;;;;;;;;;22.00;90.40;;;;;;4316274;33;43064;-83
2021/08/13 01:43:02;;;;;;;;;;;21.90;90.40;;;;;;4316853;33;20045;-83
2021/08/13 01:45:31;;;;;;;;;;;22.00;90.40;;;;;;4315746;33;42639;-83
2021/08/13 01:47:59;;;;;;;;;;;22.00;90.40;;;;;;4316447;33;43953;-83
2021/08/13 01:50:30;;;;;;;;;;;22.00;90.40;;;;;;4315285;33;43901;-83
2021/08/13 01:52:58;;;;;;;;;;;22.00;90.40;;;;;;4315221;33;45969;-84
2021/08/13 01:55:26;;;;;;;;;;;21.90;90.40;;;;;;4315126;33;44226;-83
2021/08/13 01:57:53;;;;;;;;;;;21.90;90.40;;;;;;4314548;33;44095;-82
2021/08/13 02:00:21;;;;;;;;;;;21.90;90.40;;;;;;4315615;33;42514;-83
2021/08/13 02:02:49;;;;;;;;;;;21.90;90.40;;;;;;4315431;33;44237;-83
2021/08/13 02:05:20;;;;;;;;;;;21.90;90.40;;;;;;4315003;33;43942;-82
2021/08/13 02:07:47;;;;;;;;;;;21.90;90.50;;;;;;4314473;33;42630;-83
2021/08/13 02:10:15;;;;;;;;;;;21.90;90.50;;;;;;4315544;33;44247;-84
2021/08/13 02:12:45;;;;;;;;;;;21.90;90.50;;;;;;4315616;33;44257;-83
2021/08/13 02:15:13;;;;;;;;;;;21.90;90.50;;;;;;4314427;33;42992;-84
2021/08/13 02:17:55;;;;;;;;;;;21.80;90.50;;;;;;4314802;33;43326;-83
2021/08/13 02:20:25;;;;;;;;;;;21.80;90.50;;;;;;4315857;33;42710;-83
2021/08/13 02:22:52;;;;;;;;;;;21.80;90.50;;;;;;4315398;33;43708;-84
2021/08/13 02:25:20;;;;;;;;;;;21.80;90.50;;;;;;4315986;33;44373;-83
2021/08/13 02:27:47;;;;;;;;;;;21.80;90.60;;;;;;4314514;33;42155;-84
2021/08/13 02:30:14;;;;;;;;;;;21.80;90.60;;;;;;4315652;33;42308;-83
2021/08/13 02:32:41;;;;;;;;;;;21.80;90.60;;;;;;4314458;33;43807;-83
2021/08/13 02:35:08;;;;;;;;;;;21.80;90.60;;;;;;4315864;33;44219;-83
2021/08/13 02:37:38;;;;;;;;;;;21.70;90.60;;;;;;4314874;33;44211;-84
2021/08/13 02:40:29;;;;;;;;;;;21.80;90.70;;;;;;4315439;33;43504;-84
2021/08/13 02:43:06;;;;;;;;;;;21.70;90.70;;;;;;4309002;33;43291;-83
2021/08/13 02:45:35;;;;;;;;;;;21.70;90.70;;;;;;4315893;33;44124;-83
2021/08/13 02:48:05;;;;;;;;;;;21.70;90.60;;;;;;4315461;33;44288;-84
2021/08/13 02:50:32;;;;;;;;;;;21.80;90.70;;;;;;4318706;33;43149;-84
2021/08/13 02:53:07;;;;;;;;;;;21.70;90.70;;;;;;4318200;33;43183;-83
2021/08/13 02:55:42;;;;;;;;;;;21.70;90.70;;;;;;4318204;33;43824;-83
2021/08/13 02:58:10;;;;;;;;;;;21.70;90.70;;;;;;4317476;33;42706;-84
2021/08/13 03:00:38;;;;;;;;;;;21.70;90.70;;;;;;4318439;33;44248;-83
2021/08/13 03:03:06;;;;;;;;;;;21.70;90.70;;;;;;4318090;33;43349;-83
2021/08/13 03:05:35;;;;;;;;;;;21.70;90.70;;;;;;4318597;33;43929;-84
2021/08/13 03:08:02;;;;;;;;;;;21.70;90.70;;;;;;4317228;33;44912;-83
2021/08/13 03:10:30;;;;;;;;;;;21.60;90.70;;;;;;4318303;33;46062;-83
2021/08/13 03:12:57;;;;;;;;;;;21.60;90.80;;;;;;4318289;33;44260;-83
2021/08/13 03:15:24;;;;;;;;;;;21.60;90.80;;;;;;4317870;33;42788;-83
2021/08/13 03:17:51;;;;;;;;;;;21.60;90.80;;;;;;4318438;33;43953;-83
2021/08/13 03:20:19;;;;;;;;;;;21.60;90.80;;;;;;4317932;33;43162;-83
2021/08/13 03:22:46;;;;;;;;;;;21.60;90.80;;;;;;4316964;33;44039;-83
2021/08/13 03:25:14;;;;;;;;;;;21.50;90.80;;;;;;4317784;33;43518;-83
2021/08/13 03:27:42;;;;;;;;;;;21.60;90.80;;;;;;4317770;33;42817;-84
2021/08/13 03:30:09;;;;;;;;;;;21.50;90.80;;;;;;4317140;33;43948;-83
2021/08/13 03:32:42;;;;;;;;;;;21.50;90.80;;;;;;4316924;33;43196;-83
2021/08/13 03:35:09;;;;;;;;;;;21.50;90.80;;;;;;4318182;33;44239;-83
2021/08/13 03:37:36;;;;;;;;;;;21.50;90.80;;;;;;4316925;33;43850;-82
2021/08/13 03:40:06;;;;;;;;;;;21.40;90.70;;;;;;4316459;33;43899;-83
2021/08/13 03:42:34;;;;;;;;;;;21.40;90.70;;;;;;4316331;33;43413;-84
2021/08/13 03:45:01;;;;;;;;;;;21.40;90.80;;;;;;4317463;33;42990;-83
2021/08/13 03:47:30;;;;;;;;;;;21.40;90.80;;;;;;4317426;33;44060;-83
2021/08/13 03:49:57;;;;;;;;;;;21.40;90.80;;;;;;4317685;33;43339;-84
2021/08/13 03:52:26;;;;;;;;;;;21.40;90.80;;;;;;4317889;33;44380;-83
2021/08/13 03:54:53;;;;;;;;;;;21.30;90.80;;;;;;4316663;33;43047;-83
2021/08/13 03:57:20;;;;;;;;;;;21.40;90.90;;;;;;4317435;33;43114;-83
2021/08/13 03:59:47;;;;;;;;;;;21.30;90.90;;;;;;4316022;33;42680;-83
2021/08/13 04:02:14;;;;;;;;;;;21.30;90.90;;;;;;4317231;33;44225;-83
2021/08/13 04:04:41;;;;;;;;;;;21.20;90.80;;;;;;4317530;33;43856;-83
2021/08/13 04:07:11;;;;;;;;;;;21.30;90.80;;;;;;4316536;33;44219;-83
2021/08/13 04:09:38;;;;;;;;;;;21.20;90.80;;;;;;4316488;33;42666;-83
2021/08/13 04:12:06;;;;;;;;;;;21.20;90.80;;;;;;4317275;33;42590;-84
2021/08/13 04:14:33;;;;;;;;;;;21.20;90.80;;;;;;4317179;33;43559;-83
2021/08/13 04:17:00;;;;;;;;;;;21.20;90.90;;;;;;4317456;33;43527;-82
2021/08/13 04:19:27;;;;;;;;;;;21.20;90.90;;;;;;4317040;33;43583;-83
2021/08/13 04:21:54;;;;;;;;;;;21.20;90.90;;;;;;4317309;33;43355;-83
2021/08/13 04:24:23;;;;;;;;;;;21.20;90.90;;;;;;4315980;33;43859;-83
2021/08/13 04:26:50;;;;;;;;;;;21.20;90.90;;;;;;4316219;33;44067;-83
2021/08/13 04:29:17;;;;;;;;;;;21.20;90.90;;;;;;4316853;33;44249;-83
2021/08/13 04:31:47;;;;;;;;;;;21.20;90.90;;;;;;4317258;33;43185;-83
2021/08/13 04:34:14;;;;;;;;;;;21.10;90.90;;;;;;4317168;33;43624;-83
2021/08/13 04:36:41;;;;;;;;;;;21.10;90.80;;;;;;4317270;33;44592;-83
2021/08/13 04:39:09;;;;;;;;;;;21.10;90.80;;;;;;4315590;33;43234;-82
2021/08/13 04:41:37;;;;;;;;;;;21.10;90.90;;;;;;4316058;33;43778;-82
2021/08/13 04:44:04;;;;;;;;;;;21.10;90.90;;;;;;4315797;33;45159;-82
2021/08/13 04:46:31;;;;;;;;;;;21.10;90.90;;;;;;4316633;33;44102;-83
2021/08/13 04:48:58;;;;;;;;;;;21.10;90.90;;;;;;4316624;33;42228;-83
2021/08/13 04:51:25;;;;;;;;;;;21.00;91.00;;;;;;4316969;33;43030;-83
2021/08/13 04:53:52;;;;;;;;;;;21.00;90.90;;;;;;4316464;33;42872;-83
2021/08/13 04:56:19;;;;;;;;;;;21.00;91.00;;;;;;4316828;33;42346;-83
2021/08/13 04:58:46;;;;;;;;;;;21.00;91.00;;;;;;4316825;33;44209;-84
2021/08/13 05:01:15;;;;;;;;;;;21.00;91.00;;;;;;4316870;33;43029;-83
2021/08/13 05:03:42;;;;;;;;;;;21.00;91.00;;;;;;4316162;33;43009;-84
2021/08/13 05:06:10;;;;;;;;;;;21.00;91.10;;;;;;4316394;33;42894;-83
2021/08/13 05:08:38;;;;;;;;;;;21.00;91.10;;;;;;4316294;33;42956;-83
2021/08/13 05:11:05;;;;;;;;;;;21.00;91.10;;;;;;4315940;33;43102;-83
2021/08/13 05:13:32;;;;;;;;;;;20.90;91.10;;;;;;4316564;33;42732;-83
2021/08/13 05:15:59;;;;;;;;;;;20.90;91.10;;;;;;4316703;33;44223;-82
2021/08/13 05:18:26;;;;;;;;;;;20.90;91.10;;;;;;4316601;33;44097;-83
2021/08/13 05:20:55;;;;;;;;;;;20.90;91.20;;;;;;4316203;33;43403;-83
2021/08/13 05:23:22;;;;;;;;;;;20.90;91.20;;;;;;4315107;33;43092;-83
2021/08/13 05:25:51;;;;;;;;;;;20.90;91.20;;;;;;4316363;33;43865;-83
2021/08/13 05:28:18;;;;;;;;;;;20.90;91.30;;;;;;4316342;33;43818;-83
2021/08/13 05:30:45;;;;;;;;;;;20.90;91.30;;;;;;4316415;33;43560;-83
2021/08/13 05:33:12;;;;;;;;;;;20.90;91.40;;;;;;4315974;33;43149;-81
2021/08/13 05:35:39;;;;;;;;;;;20.90;91.40;;;;;;4315965;33;43614;-82
2021/08/13 05:38:09;;;;;;;;;;;20.90;91.40;;;;;;4315895;33;44681;-82
2021/08/13 05:40:37;;;;;;;;;;;20.90;91.50;;;;;;4315971;33;44009;-82
2021/08/13 05:43:04;;;;;;;;;;;20.90;91.50;;;;;;4314746;33;43346;-82
2021/08/13 05:45:31;;;;;;;;;;;20.90;91.50;;;;;;4315345;33;45227;-82
2021/08/13 05:47:58;;;;;;;;;;;20.90;91.60;;;;;;4314869;33;43349;-82
2021/08/13 05:50:25;;;;;;;;;;;20.90;91.50;;;;;;4315856;33;43350;-81
2021/08/13 05:52:55;;;;;;;;;;;20.90;91.60;;;;;;4315973;33;42540;-82
2021/08/13 05:55:22;;;;;;;;;;;20.90;91.60;;;;;;4314942;33;43813;-82
2021/08/13 05:57:50;;;;;;;;;;;20.90;91.70;;;;;;4315961;33;43515;-82
2021/08/13 06:00:19;;;;;;;;;;;20.90;91.70;;;;;;4316064;33;43036;-83
2021/08/13 06:02:57;;;;;;;;;;;20.90;91.70;;;;;;4315739;33;44585;-82
2021/08/13 06:05:25;;;;;;;;;;;20.90;91.70;;;;;;4315006;33;43252;-82
2021/08/13 06:07:52;;;;;;;;;;;20.90;91.70;;;;;;4314641;33;42981;-82
2021/08/13 06:10:20;;;;;;;;;;;20.90;91.70;;;;;;4314875;33;43414;-82
2021/08/13 06:12:48;;;;;;;;;;;20.90;91.60;;;;;;4315637;33;43775;-82
2021/08/13 06:15:15;;;;;;;;;;;20.90;91.70;;;;;;4314998;33;43874;-82
2021/08/13 06:17:43;;;;;;;;;;;20.90;91.70;;;;;;4314468;33;42699;-82
2021/08/13 06:20:11;;;;;;;;;;;20.90;91.70;;;;;;4314376;33;43827;-81
2021/08/13 06:22:38;;;;;;;;;;;20.90;91.70;;;;;;4315535;33;43534;-82
2021/08/13 06:25:06;;;;;;;;;;;20.90;91.70;;;;;;4315938;33;43572;-82
2021/08/13 06:27:33;;;;;;;;;;;20.80;91.70;;;;;;4315418;33;44237;-83
2021/08/13 06:30:03;;;;;;;;;;;20.90;91.70;;;;;;4315553;33;43608;-82
2021/08/13 06:32:32;;;;;;;;;;;20.90;91.80;;;;;;4315641;33;43232;-82
2021/08/13 06:34:59;;;;;;;;;;;20.80;91.80;;;;;;4315971;33;43452;-82
2021/08/13 06:37:26;;;;;;;;;;;20.80;91.90;;;;;;4314756;33;43325;-82
2021/08/13 06:39:53;;;;;;;;;;;20.80;91.90;;;;;;4315751;33;45782;-82
2021/08/13 06:42:23;;;;;;;;;;;20.80;91.90;;;;;;4315736;33;43940;-82
2021/08/13 06:44:50;;;;;;;;;;;20.80;91.90;;;;;;4314394;33;43302;-82
2021/08/13 06:47:20;;;;;;;;;;;20.80;91.90;;;;;;4315284;33;45066;-82
2021/08/13 06:49:47;;;;;;;;;;;20.80;91.90;;;;;;4315776;33;43489;-83
2021/08/13 06:52:14;;;;;;;;;;;20.80;91.90;;;;;;4315804;33;43912;-82
2021/08/13 06:54:41;;;;;;;;;;;20.80;91.90;;;;;;4315716;33;44298;-82
2021/08/13 06:57:08;;;;;;;;;;;20.80;91.90;;;;;;4316094;33;43474;-82
2021/08/13 06:59:37;;;;;;;;;;;20.80;91.90;;;;;;4314534;33;43198;-81
2021/08/13 07:02:06;;;;;;;;;;;20.80;91.90;;;;;;4313989;33;43480;-82
2021/08/13 07:04:34;;;;;;;;;;;20.80;91.80;;;;;;4315232;33;43533;-82
2021/08/13 07:07:01;;;;;;;;;;;20.80;91.80;;;;;;4315646;33;43898;-82
2021/08/13 07:09:28;;;;;;;;;;;20.80;91.70;;;;;;4314596;33;44302;-82
2021/08/13 07:11:55;;;;;;;;;;;20.80;91.70;;;;;;4315340;33;43185;-82
2021/08/13 07:14:22;;;;;;;;;;;20.80;91.60;;;;;;4315122;33;44242;-82
2021/08/13 07:16:49;;;;;;;;;;;20.80;91.60;;;;;;4315650;33;45917;-83
2021/08/13 07:19:16;;;;;;;;;;;20.80;91.50;;;;;;4314243;33;42583;-82
2021/08/13 07:21:43;;;;;;;;;;;20.80;91.50;;;;;;4315070;33;43295;-82
2021/08/13 07:24:10;;;;;;;;;;;20.80;91.40;;;;;;4315065;33;44514;-82
2021/08/13 07:26:37;;;;;;;;;;;20.80;91.40;;;;;;4315071;33;43766;-82
2021/08/13 07:29:04;;;;;;;;;;;20.80;91.40;;;;;;4315301;33;45040;-81
2021/08/13 07:31:31;;;;;;;;;;;20.80;91.40;;;;;;4314244;33;44249;-81
2021/08/13 07:33:59;;;;;;;;;;;20.80;91.40;;;;;;4315505;33;43315;-81
2021/08/13 07:36:26;;;;;;;;;;;20.80;91.40;;;;;;4318037;33;43907;-81
2021/08/13 07:38:53;;;;;;;;;;;20.80;91.30;;;;;;4318269;33;43226;-81
2021/08/13 07:41:20;;;;;;;;;;;20.80;91.30;;;;;;4318139;33;44695;-81
2021/08/13 07:43:47;;;;;;;;;;;20.80;91.30;;;;;;4317920;33;43869;-81
2021/08/13 07:46:14;;;;;;;;;;;20.80;91.30;;;;;;4316465;33;42908;-81
2021/08/13 07:48:41;;;;;;;;;;;20.80;91.30;;;;;;4317877;33;43248;-81
2021/08/13 07:51:09;;;;;;;;;;;20.80;91.30;;;;;;4317831;33;44187;-82
2021/08/13 07:53:36;;;;;;;;;;;20.80;91.30;;;;;;4317294;33;44640;-82
2021/08/13 07:56:06;;;;;;;;;;;20.80;91.30;;;;;;4317500;33;42953;-81
2021/08/13 07:58:33;;;;;;;;;;;20.80;91.20;;;;;;4317482;33;44695;-81
2021/08/13 08:01:02;;;;;;;;;;;20.80;91.30;;;;;;4317281;33;43947;-82
2021/08/13 08:03:30;;;;;;;;;;;20.80;91.20;;;;;;4316441;33;44109;-81
2021/08/13 08:05:57;;;;;;;;;;;20.80;91.30;;;;;;4317309;33;44176;-81
2021/08/13 08:08:24;;;;;;;;;;;20.80;91.30;;;;;;4317465;33;43173;-81
2021/08/13 08:10:51;;;;;;;;;;;20.80;91.20;;;;;;4316299;33;44213;-81
2021/08/13 08:13:18;;;;;;;;;;;20.80;91.20;;;;;;4317365;33;43880;-81
2021/08/13 08:15:46;;;;;;;;;;;20.80;91.30;;;;;;4317447;33;42756;-81
2021/08/13 08:18:15;;;;;;;;;;;20.80;91.30;;;;;;4316340;33;44191;-81
2021/08/13 08:20:42;;;;;;;;;;;20.80;91.30;;;;;;4317047;33;43070;-81
2021/08/13 08:23:09;;;;;;;;;;;20.80;91.30;;;;;;4317232;33;43046;-81
2021/08/13 08:25:37;;;;;;;;;;;20.80;91.30;;;;;;4316951;33;43478;-81
2021/08/13 08:28:05;;;;;;;;;;;20.80;91.30;;;;;;4316338;33;45106;-81
2021/08/13 08:30:32;;;;;;;;;;;20.80;91.30;;;;;;4316899;33;42910;-81
2021/08/13 08:32:59;;;;;;;;;;;20.80;91.30;;;;;;4317283;33;43934;-81
2021/08/13 08:35:26;;;;;;;;;;;20.80;91.30;;;;;;4315851;33;42674;-82
2021/08/13 08:37:57;;;;;;;;;;;20.80;91.30;;;;;;4316953;33;42780;-80
2021/08/13 08:40:28;;;;;;;;;;;20.80;91.30;;;;;;4317466;33;43311;-81
2021/08/13 08:42:56;;;;;;;;;;;20.80;91.30;;;;;;4315990;33;43969;-81
2021/08/13 08:45:28;;;;;;;;;;;20.80;91.30;;;;;;4316323;33;43814;-81
2021/08/13 08:48:02;;;;;;;;;;;20.80;91.40;;;;;;4316602;33;44136;-81
2021/08/13 08:50:30;;;;;;;;;;;20.80;91.40;;;;;;4317201;33;46059;-81
2021/08/13 08:52:59;;;;;;;;;;;20.80;91.40;;;;;;4315806;33;43486;-81
2021/08/13 08:55:31;;;;;;;;;;;20.80;91.40;;;;;;4317019;33;43258;-81
2021/08/13 08:57:58;;;;;;;;;;;20.90;91.40;;;;;;4316433;33;42950;-81
2021/08/13 09:00:25;;;;;;;;;;;20.90;91.50;;;;;;4315343;33;44545;-81
2021/08/13 09:02:54;;;;;;;;;;;20.90;91.50;;;;;;4315264;33;44085;-81
2021/08/13 09:05:21;;;;;;;;;;;20.90;91.40;;;;;;4317035;33;44395;-80
2021/08/13 09:07:48;;;;;;;;;;;20.90;91.50;;;;;;4316255;33;44847;-81
2021/08/13 09:10:16;;;;;;;;;;;20.90;91.50;;;;;;4315246;33;42245;-81
2021/08/13 09:12:43;;;;;;;;;;;20.90;91.50;;;;;;4316668;33;43909;-81
2021/08/13 09:15:30;;;;;;;;;;;20.90;91.50;;;;;;4316262;33;42790;-81
2021/08/13 09:18:17;;;;;;;;;;;20.90;91.50;;;;;;4316676;33;42774;-81
2021/08/13 09:20:46;;;;;;;;;;;21.00;91.60;;;;;;4316483;33;43139;-82
2021/08/13 09:23:32;;;;;;;;;;;20.90;91.50;;;;;;4315582;33;44017;-81
2021/08/13 09:26:00;;;;;;;;;;;20.90;91.50;;;;;;4316147;33;42651;-81
2021/08/13 09:28:37;;;;;;;;;;;21.00;91.60;;;;;;4316083;33;42301;-81
2021/08/13 09:31:13;;;;;;;;;;;21.00;91.60;;;;;;4316355;33;45832;-81
2021/08/13 09:33:41;;;;;;;;;;;21.00;91.60;;;;;;4316371;33;45469;-81
2021/08/13 09:36:08;;;;;;;;;;;21.00;91.60;;;;;;4315043;33;43261;-82
2021/08/13 09:38:39;;;;;;;;;;;21.00;91.60;;;;;;4316580;33;43107;-82
2021/08/13 09:41:08;;;;;;;;;;;21.10;92.00;;;;;;4315888;33;44180;-82
2021/08/13 09:44:11;;;;;;;;;;;21.00;91.60;;;;;;4316400;33;44019;-81
2021/08/13 09:46:53;;;;;;;;;;;21.00;91.60;;;;;;4270824;33;44069;-81
2021/08/13 09:49:20;;;;;;;;;;;21.10;91.70;;;;;;4298707;33;43606;-83
2021/08/13 09:51:47;;;;;;;;;;;21.10;91.70;;;;;;4315084;33;44383;-81
2021/08/13 09:54:14;;;;;;;;;;;21.10;91.70;;;;;;4316258;33;45817;-82
2021/08/13 09:56:41;;;;;;;;;;;21.10;91.60;;;;;;4315473;33;43872;-82
2021/08/13 09:59:13;;;;;;;;;;;21.10;91.70;;;;;;4315861;33;42502;-82
2021/08/13 10:01:48;;;;;;;;;;;21.10;91.90;;;;;;4315925;33;44260;-83
2021/08/13 10:04:16;;;;;;;;;;;21.20;91.80;;;;;;4316319;33;44018;-82
2021/08/13 10:06:44;;;;;;;;;;;21.20;91.80;;;;;;4314592;33;42656;-82
2021/08/13 10:09:22;;;;;;;;;;;21.20;91.80;;;;;;4316044;33;42802;-85
2021/08/13 10:11:57;;;;;;;;;;;21.20;91.90;;;;;;4315982;33;43196;-82
2021/08/13 10:14:34;;;;;;;;;;;21.20;91.90;;;;;;4316219;33;43876;-82
2021/08/13 10:17:06;;;;;;;;;;;21.20;91.80;;;;;;4314503;33;43542;-82
2021/08/13 10:19:33;;;;;;;;;;;21.20;91.90;;;;;;4315090;33;44014;-82
2021/08/13 10:22:03;;;;;;;;;;;21.30;91.90;;;;;;4315685;33;43800;-81
2021/08/13 10:24:30;;;;;;;;;;;21.30;91.90;;;;;;4314513;33;43867;-84
2021/08/13 10:26:58;;;;;;;;;;;21.30;91.80;;;;;;4315968;33;44407;-82
2021/08/13 10:29:26;;;;;;;;;;;21.30;91.90;;;;;;4314917;33;44222;-82
2021/08/13 10:31:54;;;;;;;;;;;21.30;91.80;;;;;;4315933;33;43520;-81
2021/08/13 10:34:21;;;;;;;;;;;21.30;91.90;;;;;;4315885;33;43298;-82
2021/08/13 10:36:49;;;;;;;;;;;21.40;91.90;;;;;;4314296;33;44244;-81
2021/08/13 10:39:16;;;;;;;;;;;21.40;92.00;;;;;;4315631;33;43236;-82
2021/08/13 10:41:45;;;;;;;;;;;21.40;91.90;;;;;;4315383;33;44072;-82
2021/08/13 10:44:14;;;;;;;;;;;21.40;91.90;;;;;;4314706;33;43875;-82
2021/08/13 10:46:47;;;;;;;;;;;21.40;92.00;;;;;;4314991;33;43965;-83
2021/08/13 10:49:17;;;;;;;;;;;21.40;91.90;;;;;;4315323;33;43474;-82
2021/08/13 10:51:44;;;;;;;;;;;21.40;92.00;;;;;;4315294;33;43016;-82
2021/08/13 10:54:16;;;;;;;;;;;21.50;92.00;;;;;;4314513;33;43356;-81
2021/08/13 10:56:44;;;;;;;;;;;21.50;91.90;;;;;;4314619;33;43668;-82
2021/08/13 10:59:14;;;;;;;;;;;21.50;91.90;;;;;;4315217;33;44077;-82
2021/08/13 11:02:05;;;;;;;;;;;21.50;91.90;;;;;;4314034;33;42949;-83
2021/08/13 11:05:00;;;;;;;;;;;21.50;91.80;;;;;;4309594;33;44237;-83
2021/08/13 11:07:46;;;;;;;;;;;21.50;91.90;;;;;;4313684;33;44056;-84
2021/08/13 11:10:32;;;;;;;;;;;21.60;91.90;;;;;;4317288;33;43339;-83
2021/08/13 11:13:11;;;;;;;;;;;21.60;91.80;;;;;;4318175;33;43468;-81
2021/08/13 11:15:38;;;;;;;;;;;21.60;91.80;;;;;;4318506;33;43757;-84
2021/08/13 11:18:24;;;;;;;;;;;21.60;91.90;;;;;;4317221;33;45824;-83
2021/08/13 11:20:52;;;;;;;;;;;21.60;91.90;;;;;;4317952;33;44697;-85
2021/08/13 11:23:19;;;;;;;;;;;21.70;91.80;;;;;;4317834;33;42722;-83
2021/08/13 11:25:47;;;;;;;;;;;21.60;91.80;;;;;;4316974;33;43848;-84
2021/08/13 11:28:20;;;;;;;;;;;21.70;91.80;;;;;;4316721;33;42470;-84
2021/08/13 11:30:48;;;;;;;;;;;21.70;91.90;;;;;;4317123;33;43554;-83
2021/08/13 11:33:24;;;;;;;;;;;21.70;91.80;;;;;;4316740;33;42877;-84
2021/08/13 11:35:52;;;;;;;;;;;21.70;91.80;;;;;;4317007;33;43622;-87
2021/08/13 11:38:38;;;;;;;;;;;21.80;91.90;;;;;;4317881;33;42616;-82
2021/08/13 11:41:23;;;;;;;;;;;21.80;91.90;;;;;;4317593;33;43082;-85
2021/08/13 11:43:53;;;;;;;;;;;21.80;91.90;;;;;;4318109;33;43610;-84
2021/08/13 11:46:31;;;;;;;;;;;21.80;91.80;;;;;;4316791;33;43569;-83
2021/08/13 11:48:59;;;;;;;;;;;21.80;91.80;;;;;;4317994;33;44113;-84
2021/08/13 11:51:27;;;;;;;;;;;21.80;91.80;;;;;;4316863;33;44203;-83
2021/08/13 11:53:54;;;;;;;;;;;21.80;91.90;;;;;;4317468;33;20034;-85
2021/08/13 11:56:31;;;;;;;;;;;21.80;91.90;;;;;;4317574;33;43502;-84
2021/08/13 11:58:59;;;;;;;;;;;21.80;91.90;;;;;;4317959;33;43109;-83
2021/08/13 12:01:27;;;;;;;;;;;21.80;91.80;;;;;;4316400;33;43808;-84
2021/08/13 12:03:54;;;;;;;;;;;21.80;91.90;;;;;;4316732;33;44278;-85
2021/08/13 12:06:21;;;;;;;;;;;21.90;91.90;;;;;;4316658;33;43853;-83
2021/08/13 12:08:48;;;;;;;;;;;21.90;91.90;;;;;;4317337;33;44185;-82
2021/08/13 12:11:19;;;;;;;;;;;21.90;91.90;;;;;;4316370;33;43383;-84
2021/08/13 12:13:47;;;;;;;;;;;22.00;91.80;;;;;;4317379;33;43953;-83
2021/08/13 12:16:20;;;;;;;;;;;22.00;91.70;;;;;;4317139;33;43055;-83
2021/08/13 12:18:47;;;;;;;;;;;22.10;91.80;;;;;;4317036;33;43290;-84
2021/08/13 12:21:15;;;;;;;;;;;22.10;91.80;;;;;;4315731;33;43499;-83
2021/08/13 12:23:52;;;;;;;;;;;22.20;91.80;;;;;;4316427;33;43532;-82
2021/08/13 12:26:26;;;;;;;;;;;22.20;91.80;;;;;;4317404;33;43746;-82
2021/08/13 12:28:53;;;;;;;;;;;22.20;91.70;;;;;;4315858;33;43028;-83
2021/08/13 12:31:20;;;;;;;;;;;22.20;91.80;;;;;;4316994;33;44258;-83
2021/08/13 12:33:54;;;;;;;;;;;22.20;91.70;;;;;;4317259;33;44246;-82
2021/08/13 12:36:21;;;;;;;;;;;22.20;91.70;;;;;;4317480;33;44233;-82
2021/08/13 12:38:53;;;;;;;;;;;22.20;91.80;;;;;;4315767;33;44896;-85
2021/08/13 12:41:22;;;;;;;;;;;22.20;91.70;;;;;;4317366;33;43913;-83
2021/08/13 12:43:50;;;;;;;;;;;22.20;91.80;;;;;;4316645;33;44025;-85
2021/08/13 12:46:17;;;;;;;;;;;22.30;91.80;;;;;;4317089;33;43128;-85
2021/08/13 12:48:44;;;;;;;;;;;22.30;91.90;;;;;;4315826;33;43193;-83
2021/08/13 12:51:24;;;;;;;;;;;22.30;91.80;;;;;;4315937;33;42781;-84
2021/08/13 12:53:51;;;;;;;;;;;22.30;91.80;;;;;;4315969;33;44632;-84
2021/08/13 12:56:18;;;;;;;;;;;22.40;91.70;;;;;;4316522;33;43124;-86
2021/08/13 12:58:45;;;;;;;;;;;22.40;91.70;;;;;;4315584;33;43777;-84
2021/08/13 13:01:29;;;;;;;;;;;22.50;91.70;;;;;;4316564;33;44616;-86
2021/08/13 13:04:11;;;;;;;;;;;22.50;91.80;;;;;;4316962;33;44394;-85
2021/08/13 13:06:39;;;;;;;;;;;22.50;91.70;;;;;;4316803;33;44016;-84
2021/08/13 13:09:07;;;;;;;;;;;22.50;91.70;;;;;;4317044;33;44951;-84
2021/08/13 13:11:34;;;;;;;;;;;22.50;91.70;;;;;;4315426;33;43764;-83
2021/08/13 13:14:17;;;;;;;;;;;22.60;91.70;;;;;;4316388;33;43822;-83
2021/08/13 13:17:04;;;;;;;;;;;22.60;91.90;;;;;;4315221;33;43276;-82
2021/08/13 13:19:31;;;;;;;;;;;22.60;91.60;;;;;;4315667;33;43850;-86
2021/08/13 13:22:19;;;;;;;;;;;22.60;91.60;;;;;;4316681;33;43881;-82
2021/08/13 13:25:07;;;;;;;;;;;22.60;91.70;;;;;;4315076;33;44113;-85
2021/08/13 13:27:53;;;;;;;;;;;22.60;91.70;;;;;;4316130;33;42229;-83
2021/08/13 13:30:37;;;;;;;;;;;22.60;91.60;;;;;;4316319;33;44603;-85
2021/08/13 13:33:08;;;;;;;;;;;22.60;91.60;;;;;;4315925;33;44154;-85
2021/08/13 13:35:37;;;;;;;;;;;22.70;91.70;;;;;;4314999;33;43509;-84
2021/08/13 13:38:05;;;;;;;;;;;22.70;91.70;;;;;;4316353;33;44337;-83
2021/08/13 13:40:36;;;;;;;;;;;22.70;91.80;;;;;;4315698;33;43888;-85
2021/08/13 13:43:03;;;;;;;;;;;22.80;91.90;;;;;;4316292;33;43051;-86
2021/08/13 13:45:30;;;;;;;;;;;22.80;91.80;;;;;;4316410;33;44212;-84
2021/08/13 13:47:57;;;;;;;;;;;22.80;91.80;;;;;;4315181;33;43899;-83
2021/08/13 13:50:25;;;;;;;;;;;22.90;91.60;;;;;;4315753;33;44011;-83
2021/08/13 13:52:52;;;;;;;;;;;22.90;91.70;;;;;;4315833;33;42645;-84
2021/08/13 13:55:19;;;;;;;;;;;22.90;91.70;;;;;;4315751;33;42685;-81
2021/08/13 13:57:46;;;;;;;;;;;23.00;91.70;;;;;;4315742;33;44296;-84
2021/08/13 14:00:17;;;;;;;;;;;23.00;91.70;;;;;;4315714;33;43917;-83
2021/08/13 14:02:45;;;;;;;;;;;23.00;91.70;;;;;;4315793;33;43467;-84
2021/08/13 14:05:13;;;;;;;;;;;23.10;91.50;;;;;;4314653;33;43311;-84
2021/08/13 14:07:44;;;;;;;;;;;23.10;91.50;;;;;;4315723;33;43289;-84
2021/08/13 14:10:13;;;;;;;;;;;23.10;91.40;;;;;;4315111;33;45160;-83
2021/08/13 14:12:41;;;;;;;;;;;23.10;91.30;;;;;;4314944;33;44257;-85
2021/08/13 14:15:11;;;;;;;;;;;23.10;91.30;;;;;;4314749;33;43348;-83
2021/08/13 14:17:44;;;;;;;;;;;23.20;91.60;;;;;;4314947;33;44206;-83
2021/08/13 14:20:15;;;;;;;;;;;23.20;91.30;;;;;;4316020;33;41878;-82
2021/08/13 14:22:42;;;;;;;;;;;23.20;91.20;;;;;;4315946;33;44661;-84
2021/08/13 14:25:12;;;;;;;;;;;23.20;91.30;;;;;;4315925;33;43475;-81
2021/08/13 14:27:39;;;;;;;;;;;23.30;91.10;;;;;;4314373;33;42942;-83
2021/08/13 14:30:07;;;;;;;;;;;23.20;91.10;;;;;;4315916;33;44067;-83